Time;durP1;ratioP1;P1;durP2;ratioP2;P2;SDS_P1;SDS_P2;PMS_P1;PMS_P2;Temp;Humidity;BMP_temperature;BMP_pressure;BME280_temperature;BME280_humidity;BME280_pressure;Samples;Min_cycle;Max_cycle;Signal;HPM_P1;HPM_P2
2023/09/01 00:00:03;;;;;;;42.50;15.40;;;;;;;;;;6186421;23;20024;-43
2023/09/01 00:02:30;;;;;;;34.13;13.65;;;;;;;;;;6184193;23;20020;-44
2023/09/01 00:04:58;;;;;;;40.55;14.98;;;;;;;;;;6181329;23;20720;-43
2023/09/01 00:07:27;;;;;;;38.10;14.65;;;;;;;;;;6188237;23;20071;-43
2023/09/01 00:09:56;;;;;;;35.63;13.23;;;;;;;;;;6180430;23;20439;-42
2023/09/01 00:12:24;;;;;;;41.92;14.57;;;;;;;;;;6190273;23;20016;-44
2023/09/01 00:14:52;;;;;;;39.38;14.02;;;;;;;;;;6180045;23;20463;-42
2023/09/01 00:17:20;;;;;;;43.47;14.90;;;;;;;;;;6181480;23;20036;-42
2023/09/01 00:19:48;;;;;;;36.40;13.50;;;;;;;;;;6175050;23;20043;-43
2023/09/01 00:22:15;;;;;;;40.20;13.33;;;;;;;;;;6187817;23;20013;-43
2023/09/01 00:24:43;;;;;;;40.47;14.43;;;;;;;;;;6181762;23;20020;-43
2023/09/01 00:27:12;;;;;;;40.08;14.70;;;;;;;;;;6187977;23;20024;-44
2023/09/01 00:29:40;;;;;;;38.05;14.10;;;;;;;;;;6177348;23;20364;-43
2023/09/01 00:32:08;;;;;;;40.47;13.55;;;;;;;;;;6181026;23;20474;-43
2023/09/01 00:34:37;;;;;;;33.70;12.37;;;;;;;;;;6177631;23;20021;-43
2023/09/01 00:37:05;;;;;;;38.10;13.70;;;;;;;;;;6193080;23;20440;-42
2023/09/01 00:39:33;;;;;;;39.22;13.10;;;;;;;;;;6173973;23;20432;-47
2023/09/01 00:42:00;;;;;;;38.17;14.57;;;;;;;;;;6188206;23;20013;-43
2023/09/01 00:44:30;;;;;;;38.58;14.15;;;;;;;;;;6187071;23;20017;-43
2023/09/01 00:47:01;;;;;;;40.87;14.60;;;;;;;;;;6187590;23;20021;-45
2023/09/01 00:49:30;;;;;;;41.47;14.23;;;;;;;;;;6147307;23;20021;-43
2023/09/01 00:51:58;;;;;;;43.35;14.52;;;;;;;;;;6169462;23;20020;-42
2023/09/01 00:54:26;;;;;;;39.75;14.60;;;;;;;;;;6192558;23;20012;-43
2023/09/01 00:56:55;;;;;;;44.10;15.82;;;;;;;;;;6179252;23;20017;-44
2023/09/01 00:59:22;;;;;;;43.73;15.40;;;;;;;;;;6189784;23;20020;-43
2023/09/01 01:01:52;;;;;;;48.97;16.65;;;;;;;;;;6174258;23;20746;-44
2023/09/01 01:04:22;;;;;;;50.95;16.75;;;;;;;;;;6191212;23;20017;-43
2023/09/01 01:06:53;;;;;;;50.58;17.55;;;;;;;;;;6173300;23;20021;-48
2023/09/01 01:09:26;;;;;;;57.03;18.10;;;;;;;;;;6190621;23;20036;-44
2023/09/01 01:11:59;;;;;;;52.40;18.27;;;;;;;;;;6176665;23;20013;-43
2023/09/01 01:14:31;;;;;;;53.22;18.98;;;;;;;;;;6181848;23;20013;-42
2023/09/01 01:17:01;;;;;;;54.20;19.08;;;;;;;;;;6191379;23;20017;-43
2023/09/01 01:19:38;;;;;;;63.65;20.10;;;;;;;;;;6183391;23;20071;-42
2023/09/01 01:22:08;;;;;;;60.08;19.48;;;;;;;;;;6181917;23;20451;-42
2023/09/01 01:24:38;;;;;;;60.83;20.67;;;;;;;;;;6179188;23;20371;-42
2023/09/01 01:27:05;;;;;;;66.57;20.10;;;;;;;;;;6192832;23;20017;-44
2023/09/01 01:29:33;;;;;;;66.57;20.60;;;;;;;;;;6178814;23;20207;-45
2023/09/01 01:32:01;;;;;;;55.40;19.75;;;;;;;;;;6188071;23;20016;-45
2023/09/01 01:34:33;;;;;;;58.35;18.90;;;;;;;;;;6178856;23;20019;-43
2023/09/01 01:37:04;;;;;;;58.30;20.27;;;;;;;;;;6192401;23;20043;-43
2023/09/01 01:39:33;;;;;;;63.60;19.95;;;;;;;;;;6170161;23;20013;-42
2023/09/01 01:42:06;;;;;;;63.35;19.02;;;;;;;;;;6186231;23;20443;-44
2023/09/01 01:44:36;;;;;;;58.97;18.17;;;;;;;;;;6183562;23;20020;-45
2023/09/01 01:47:04;;;;;;;60.38;18.98;;;;;;;;;;6186186;23;20092;-43
2023/09/01 01:49:32;;;;;;;62.80;19.50;;;;;;;;;;6193009;23;20079;-44
2023/09/01 01:52:01;;;;;;;62.67;18.85;;;;;;;;;;6186014;23;20024;-42
2023/09/01 01:54:30;;;;;;;63.28;20.30;;;;;;;;;;6198805;23;20084;-43
2023/09/01 01:56:57;;;;;;;59.70;18.60;;;;;;;;;;6173639;23;20339;-46
2023/09/01 01:59:27;;;;;;;68.88;18.83;;;;;;;;;;6191335;23;20080;-43
2023/09/01 02:01:55;;;;;;;65.70;20.83;;;;;;;;;;6168098;23;20265;-44
2023/09/01 02:04:22;;;;;;;71.60;21.00;;;;;;;;;;6189806;23;20074;-42
2023/09/01 02:06:51;;;;;;;68.43;19.55;;;;;;;;;;6192003;23;20017;-43
2023/09/01 02:09:19;;;;;;;76.82;21.05;;;;;;;;;;6177386;23;20039;-42
2023/09/01 02:11:46;;;;;;;72.88;19.98;;;;;;;;;;6193388;23;20017;-43
2023/09/01 02:14:15;;;;;;;77.67;20.00;;;;;;;;;;6186902;23;20016;-43
2023/09/01 02:16:43;;;;;;;79.18;21.30;;;;;;;;;;6164050;23;20238;-45
2023/09/01 02:19:11;;;;;;;85.00;21.27;;;;;;;;;;6191907;23;20017;-46
2023/09/01 02:21:40;;;;;;;92.70;21.48;;;;;;;;;;6190131;23;20348;-43
2023/09/01 02:24:08;;;;;;;93.65;22.83;;;;;;;;;;6189542;23;20012;-43
2023/09/01 02:26:36;;;;;;;103.23;23.07;;;;;;;;;;6190694;23;20017;-43
2023/09/01 02:29:05;;;;;;;103.78;21.30;;;;;;;;;;6169799;23;20020;-43
2023/09/01 02:31:32;;;;;;;116.57;22.25;;;;;;;;;;6191889;23;20017;-43
2023/09/01 02:34:05;;;;;;;109.25;22.33;;;;;;;;;;6200936;23;20380;-43
2023/09/01 02:36:34;;;;;;;102.03;22.23;;;;;;;;;;6176934;23;20513;-43
2023/09/01 02:39:04;;;;;;;111.67;22.20;;;;;;;;;;6190939;23;20044;-44
2023/09/01 02:41:32;;;;;;;133.60;22.50;;;;;;;;;;6186357;23;20257;-43
2023/09/01 02:44:00;;;;;;;124.88;22.90;;;;;;;;;;6196514;23;20016;-44
2023/09/01 02:46:29;;;;;;;158.82;23.55;;;;;;;;;;6189381;23;20055;-42
2023/09/01 02:48:57;;;;;;;138.48;23.85;;;;;;;;;;6163440;23;20563;-43
2023/09/01 02:51:26;;;;;;;141.47;22.77;;;;;;;;;;6171884;23;20472;-44
2023/09/01 02:53:54;;;;;;;152.65;25.10;;;;;;;;;;6190236;23;20016;-42
2023/09/01 02:56:21;;;;;;;137.07;22.50;;;;;;;;;;6187006;23;20016;-43
2023/09/01 02:58:49;;;;;;;139.20;22.98;;;;;;;;;;6193818;23;20349;-43
2023/09/01 03:01:18;;;;;;;140.88;25.40;;;;;;;;;;6189118;23;20020;-43
2023/09/01 03:03:46;;;;;;;165.40;25.30;;;;;;;;;;6192768;23;20020;-43
2023/09/01 03:06:18;;;;;;;158.23;24.20;;;;;;;;;;6196728;23;20039;-43
2023/09/01 03:08:49;;;;;;;151.90;25.08;;;;;;;;;;6192015;23;20017;-42
2023/09/01 03:11:18;;;;;;;171.40;24.80;;;;;;;;;;6188191;23;20448;-43
2023/09/01 03:13:45;;;;;;;106.90;22.70;;;;;;;;;;6187566;23;20103;-43
2023/09/01 03:16:13;;;;;;;119.07;23.40;;;;;;;;;;6193225;23;20024;-43
2023/09/01 03:18:42;;;;;;;120.25;24.00;;;;;;;;;;6192120;23;20032;-44
2023/09/01 03:21:11;;;;;;;122.97;24.27;;;;;;;;;;6185879;23;20522;-43
2023/09/01 03:23:38;;;;;;;103.90;23.73;;;;;;;;;;6194724;23;20198;-42
2023/09/01 03:26:08;;;;;;;59.80;16.15;;;;;;;;;;6186612;23;20024;-42
2023/09/01 03:28:36;;;;;;;37.53;10.73;;;;;;;;;;6197772;23;20013;-42
2023/09/01 03:31:09;;;;;;;34.42;10.52;;;;;;;;;;6183028;23;20430;-44
2023/09/01 03:33:37;;;;;;;31.63;10.48;;;;;;;;;;6184306;23;20024;-45
2023/09/01 03:36:07;;;;;;;30.08;10.30;;;;;;;;;;6185884;23;20020;-44
2023/09/01 03:38:35;;;;;;;27.77;9.63;;;;;;;;;;6198502;23;20021;-44
2023/09/01 03:41:04;;;;;;;28.90;11.20;;;;;;;;;;6166187;23;20096;-43
2023/09/01 03:43:33;;;;;;;29.65;9.95;;;;;;;;;;6199226;23;20024;-43
2023/09/01 03:46:02;;;;;;;30.40;10.48;;;;;;;;;;6180820;23;20086;-43
2023/09/01 03:48:31;;;;;;;30.05;10.73;;;;;;;;;;6189488;23;20291;-42
2023/09/01 03:51:08;;;;;;;26.92;10.45;;;;;;;;;;6192736;23;20021;-43
2023/09/01 03:53:37;;;;;;;33.20;11.47;;;;;;;;;;6181366;23;20055;-42
2023/09/01 03:56:07;;;;;;;31.60;11.40;;;;;;;;;;6187098;23;20019;-43
2023/09/01 03:58:36;;;;;;;28.60;10.75;;;;;;;;;;6160456;23;20016;-43
2023/09/01 04:01:09;;;;;;;31.88;12.20;;;;;;;;;;6192738;23;20155;-42
2023/09/01 04:03:37;;;;;;;32.20;13.27;;;;;;;;;;6191162;23;20027;-43
2023/09/01 04:06:05;;;;;;;37.13;13.60;;;;;;;;;;6192481;23;20013;-43
2023/09/01 04:08:34;;;;;;;40.28;14.90;;;;;;;;;;6191159;23;20020;-43
2023/09/01 04:11:02;;;;;;;37.65;14.80;;;;;;;;;;6189440;23;20042;-43
2023/09/01 04:13:30;;;;;;;44.97;15.57;;;;;;;;;;6179204;23;20017;-47
2023/09/01 04:16:00;;;;;;;45.53;15.98;;;;;;;;;;6191462;23;20012;-42
2023/09/01 04:18:28;;;;;;;49.03;16.83;;;;;;;;;;6192124;23;20099;-43
2023/09/01 04:20:56;;;;;;;57.25;17.05;;;;;;;;;;6186395;23;20024;-43
2023/09/01 04:23:24;;;;;;;60.78;19.38;;;;;;;;;;6192881;23;20013;-42
2023/09/01 04:25:51;;;;;;;50.03;16.95;;;;;;;;;;6180038;23;20394;-43
2023/09/01 04:28:19;;;;;;;53.55;18.23;;;;;;;;;;6198076;23;20090;-43
2023/09/01 04:30:48;;;;;;;52.87;17.13;;;;;;;;;;6187813;23;20016;-44
2023/09/01 04:33:17;;;;;;;52.55;18.13;;;;;;;;;;6193903;23;20017;-43
2023/09/01 04:35:45;;;;;;;56.85;17.88;;;;;;;;;;6188373;23;20012;-44
2023/09/01 04:38:13;;;;;;;53.92;16.85;;;;;;;;;;6192198;23;20020;-43
2023/09/01 04:40:41;;;;;;;52.45;17.45;;;;;;;;;;6180950;23;20184;-43
2023/09/01 04:43:09;;;;;;;53.17;16.90;;;;;;;;;;6191579;23;20443;-45
2023/09/01 04:45:38;;;;;;;54.13;17.33;;;;;;;;;;6192407;23;20016;-43
2023/09/01 04:48:08;;;;;;;53.45;17.38;;;;;;;;;;6183779;23;20020;-45
2023/09/01 04:50:38;;;;;;;50.05;16.92;;;;;;;;;;6185427;23;20455;-45
2023/09/01 04:53:06;;;;;;;49.97;16.52;;;;;;;;;;6177728;23;20021;-47
2023/09/01 04:55:35;;;;;;;54.67;16.47;;;;;;;;;;6186704;23;20538;-43
2023/09/01 04:58:03;;;;;;;54.45;16.95;;;;;;;;;;6160648;23;20067;-43
2023/09/01 05:00:32;;;;;;;52.67;16.50;;;;;;;;;;6163233;23;20096;-43
2023/09/01 05:02:59;;;;;;;53.10;16.20;;;;;;;;;;6179119;23;20382;-43
2023/09/01 05:05:27;;;;;;;56.95;18.27;;;;;;;;;;6188965;23;20024;-43
2023/09/01 05:07:57;;;;;;;56.43;17.53;;;;;;;;;;6184614;23;20446;-43
2023/09/01 05:10:24;;;;;;;49.13;16.80;;;;;;;;;;6184988;23;20012;-43
2023/09/01 05:12:52;;;;;;;55.83;17.00;;;;;;;;;;6186864;23;20032;-43
2023/09/01 05:15:20;;;;;;;54.78;16.15;;;;;;;;;;6178870;23;20020;-44
2023/09/01 05:17:48;;;;;;;52.67;17.05;;;;;;;;;;6177722;23;20491;-42
2023/09/01 05:20:16;;;;;;;55.83;17.30;;;;;;;;;;6179910;23;20446;-43
2023/09/01 05:22:44;;;;;;;55.83;17.63;;;;;;;;;;6189870;23;20013;-42
2023/09/01 05:25:13;;;;;;;50.78;17.30;;;;;;;;;;6185743;23;20478;-45
2023/09/01 05:27:40;;;;;;;53.55;16.60;;;;;;;;;;6178420;23;20318;-44
2023/09/01 05:30:08;;;;;;;43.53;15.70;;;;;;;;;;6193680;23;20070;-43
2023/09/01 05:32:36;;;;;;;48.57;15.97;;;;;;;;;;6162094;23;20024;-43
2023/09/01 05:35:04;;;;;;;48.67;16.33;;;;;;;;;;6186260;23;20027;-43
2023/09/01 05:37:32;;;;;;;46.42;16.05;;;;;;;;;;6175020;23;20020;-43
2023/09/01 05:40:08;;;;;;;45.00;15.45;;;;;;;;;;6180103;23;20517;-43
2023/09/01 05:42:37;;;;;;;40.42;14.73;;;;;;;;;;6187284;23;20024;-43
2023/09/01 05:45:05;;;;;;;39.23;12.97;;;;;;;;;;6180682;23;20027;-43
2023/09/01 05:47:33;;;;;;;33.90;12.10;;;;;;;;;;6187551;23;20404;-43
2023/09/01 05:50:03;;;;;;;36.33;13.45;;;;;;;;;;6178706;23;20368;-42
2023/09/01 05:52:31;;;;;;;31.58;11.90;;;;;;;;;;6192196;23;20447;-43
2023/09/01 05:54:59;;;;;;;32.40;12.55;;;;;;;;;;6137396;23;20016;-44
2023/09/01 05:57:27;;;;;;;29.13;11.90;;;;;;;;;;6187052;23;20016;-42
2023/09/01 05:59:58;;;;;;;28.75;11.15;;;;;;;;;;6182003;23;20020;-42
2023/09/01 06:02:25;;;;;;;26.75;9.85;;;;;;;;;;6187686;23;20024;-44
2023/09/01 06:04:54;;;;;;;27.63;10.02;;;;;;;;;;6174420;23;20099;-43
2023/09/01 06:07:21;;;;;;;21.60;8.88;;;;;;;;;;6191604;23;20091;-43
2023/09/01 06:09:50;;;;;;;21.40;8.53;;;;;;;;;;6169511;23;20519;-43
2023/09/01 06:12:19;;;;;;;19.67;7.40;;;;;;;;;;6187935;23;20048;-42
2023/09/01 06:14:47;;;;;;;17.23;7.03;;;;;;;;;;6181096;23;20020;-43
2023/09/01 06:17:16;;;;;;;17.65;6.90;;;;;;;;;;6190207;23;20012;-42
2023/09/01 06:19:49;;;;;;;18.38;7.35;;;;;;;;;;6187708;23;20107;-44
2023/09/01 06:22:16;;;;;;;15.97;6.97;;;;;;;;;;6180474;23;20396;-43
2023/09/01 06:24:44;;;;;;;19.08;7.90;;;;;;;;;;6185200;23;20012;-44
2023/09/01 06:27:12;;;;;;;17.67;7.50;;;;;;;;;;6184202;23;20027;-43
2023/09/01 06:29:40;;;;;;;17.60;6.75;;;;;;;;;;6188697;23;20231;-45
2023/09/01 06:32:11;;;;;;;17.77;7.45;;;;;;;;;;6185325;23;20027;-42
2023/09/01 06:34:40;;;;;;;26.63;7.80;;;;;;;;;;6187415;23;20430;-43
2023/09/01 06:37:08;;;;;;;16.08;6.85;;;;;;;;;;6178475;23;20020;-44
2023/09/01 06:39:37;;;;;;;22.88;7.18;;;;;;;;;;6171565;23;20424;-44
2023/09/01 06:42:06;;;;;;;18.02;7.57;;;;;;;;;;6169826;23;20431;-44
2023/09/01 06:44:36;;;;;;;21.75;7.80;;;;;;;;;;6167471;23;20079;-44
2023/09/01 06:47:04;;;;;;;19.20;7.80;;;;;;;;;;6181532;23;20024;-44
2023/09/01 06:49:32;;;;;;;17.55;7.28;;;;;;;;;;6177896;23;20059;-44
2023/09/01 06:52:01;;;;;;;18.40;7.32;;;;;;;;;;6168741;23;20086;-42
2023/09/01 06:54:28;;;;;;;17.10;6.57;;;;;;;;;;6185469;23;20104;-45
2023/09/01 06:56:57;;;;;;;17.88;7.30;;;;;;;;;;6166154;23;20395;-43
2023/09/01 06:59:24;;;;;;;14.77;6.07;;;;;;;;;;6189059;23;20104;-44
2023/09/01 07:01:52;;;;;;;19.90;7.90;;;;;;;;;;6176348;23;20021;-43
2023/09/01 07:04:20;;;;;;;16.95;7.30;;;;;;;;;;6181859;23;20032;-42
2023/09/01 07:06:48;;;;;;;16.95;7.13;;;;;;;;;;6180662;23;20326;-42
2023/09/01 07:09:19;;;;;;;17.40;7.40;;;;;;;;;;6188911;23;20016;-45
2023/09/01 07:11:48;;;;;;;16.57;7.03;;;;;;;;;;6183316;23;20651;-43
2023/09/01 07:14:15;;;;;;;18.00;8.05;;;;;;;;;;6184556;23;20021;-43
2023/09/01 07:16:43;;;;;;;14.77;6.97;;;;;;;;;;6189527;23;20013;-42
2023/09/01 07:19:11;;;;;;;16.15;6.63;;;;;;;;;;6179918;23;20028;-42
2023/09/01 07:21:39;;;;;;;15.43;6.95;;;;;;;;;;6185250;23;20075;-43
2023/09/01 07:24:07;;;;;;;21.07;7.40;;;;;;;;;;6175942;23;20044;-43
2023/09/01 07:26:37;;;;;;;15.95;6.45;;;;;;;;;;6190764;23;20028;-45
2023/09/01 07:29:04;;;;;;;14.70;6.60;;;;;;;;;;6139607;23;20389;-42
2023/09/01 07:31:32;;;;;;;15.20;6.70;;;;;;;;;;6178540;23;20016;-45
2023/09/01 07:34:00;;;;;;;17.98;7.50;;;;;;;;;;6160098;23;20332;-42
2023/09/01 07:36:29;;;;;;;15.90;6.87;;;;;;;;;;6186400;23;20087;-44
2023/09/01 07:38:57;;;;;;;16.05;6.93;;;;;;;;;;6176961;23;20017;-42
2023/09/01 07:41:28;;;;;;;16.70;6.47;;;;;;;;;;6169121;23;20387;-43
2023/09/01 07:43:57;;;;;;;17.67;6.75;;;;;;;;;;6179904;23;20016;-44
2023/09/01 07:46:27;;;;;;;14.88;6.35;;;;;;;;;;6132980;23;20016;-44
2023/09/01 07:48:57;;;;;;;11.70;5.27;;;;;;;;;;6132080;23;20356;-44
2023/09/01 07:51:27;;;;;;;12.50;5.20;;;;;;;;;;6105294;23;20214;-44
2023/09/01 07:53:57;;;;;;;14.20;5.43;;;;;;;;;;6131128;23;20024;-44
2023/09/01 07:56:25;;;;;;;11.77;5.50;;;;;;;;;;6142703;23;20079;-42
2023/09/01 07:58:53;;;;;;;12.75;4.60;;;;;;;;;;6179047;23;20019;-43
2023/09/01 08:01:22;;;;;;;12.50;4.90;;;;;;;;;;6157671;23;20042;-45
2023/09/01 08:03:49;;;;;;;11.48;4.85;;;;;;;;;;6178406;23;20285;-46
2023/09/01 08:06:17;;;;;;;11.18;4.28;;;;;;;;;;6170876;23;20028;-50
2023/09/01 08:08:45;;;;;;;9.52;4.10;;;;;;;;;;6162266;23;20028;-43
2023/09/01 08:11:12;;;;;;;13.63;4.22;;;;;;;;;;6153564;23;20463;-43
2023/09/01 08:13:40;;;;;;;9.90;3.57;;;;;;;;;;6168847;23;20024;-45
2023/09/01 08:16:08;;;;;;;8.45;2.83;;;;;;;;;;6162667;23;20017;-44
2023/09/01 08:18:40;;;;;;;6.88;2.15;;;;;;;;;;6163784;23;20017;-44
2023/09/01 08:21:09;;;;;;;8.02;2.15;;;;;;;;;;6150966;23;20372;-43
2023/09/01 08:23:40;;;;;;;7.25;2.22;;;;;;;;;;6155438;23;20059;-48
2023/09/01 08:26:08;;;;;;;7.53;2.03;;;;;;;;;;6174752;23;20036;-43
2023/09/01 08:28:35;;;;;;;5.90;2.05;;;;;;;;;;6142875;23;20016;-47
2023/09/01 08:31:04;;;;;;;5.18;1.58;;;;;;;;;;6147855;23;20623;-44
2023/09/01 08:33:33;;;;;;;6.07;1.88;;;;;;;;;;6157024;23;20051;-45
2023/09/01 08:36:03;;;;;;;5.85;2.05;;;;;;;;;;6162170;23;20016;-43
2023/09/01 08:38:36;;;;;;;7.33;2.00;;;;;;;;;;6142393;23;20095;-44
2023/09/01 08:41:04;;;;;;;6.32;2.40;;;;;;;;;;6156068;23;20189;-44
2023/09/01 08:43:53;;;;;;;6.05;2.28;;;;;;;;;;6152082;23;20043;-44
2023/09/01 08:46:29;;;;;;;6.22;1.90;;;;;;;;;;6150881;23;20363;-45
2023/09/01 08:48:57;;;;;;;5.90;2.53;;;;;;;;;;6147266;23;20131;-44
2023/09/01 08:51:27;;;;;;;7.27;2.30;;;;;;;;;;6154624;23;20507;-44
2023/09/01 08:54:00;;;;;;;6.18;2.17;;;;;;;;;;6171432;23;20020;-44
2023/09/01 08:56:30;;;;;;;7.95;2.25;;;;;;;;;;6168738;23;20027;-44
2023/09/01 08:58:58;;;;;;;6.65;2.38;;;;;;;;;;6150239;23;20016;-43
2023/09/01 09:01:30;;;;;;;8.30;2.70;;;;;;;;;;6160059;23;20834;-44
2023/09/01 09:04:00;;;;;;;8.40;2.50;;;;;;;;;;6170292;23;20012;-44
2023/09/01 09:06:33;;;;;;;6.80;2.50;;;;;;;;;;6168906;23;20016;-46
2023/09/01 09:09:05;;;;;;;8.23;2.22;;;;;;;;;;6155285;23;20027;-47
2023/09/01 09:11:36;;;;;;;6.15;2.15;;;;;;;;;;6177912;23;20043;-45
2023/09/01 09:14:04;;;;;;;7.10;2.28;;;;;;;;;;6176319;23;20042;-45
2023/09/01 09:16:50;;;;;;;6.60;1.97;;;;;;;;;;6165935;23;20071;-44
2023/09/01 09:19:19;;;;;;;6.78;1.77;;;;;;;;;;6167692;23;20016;-45
2023/09/01 09:21:48;;;;;;;7.40;2.08;;;;;;;;;;6173079;23;20088;-44
2023/09/01 09:24:33;;;;;;;5.97;1.45;;;;;;;;;;6182306;23;20020;-43
2023/09/01 09:27:02;;;;;;;6.07;2.08;;;;;;;;;;6149917;23;20013;-48
2023/09/01 09:29:37;;;;;;;5.87;2.20;;;;;;;;;;6176791;23;20096;-44
2023/09/01 09:32:15;;;;;;;7.05;2.33;;;;;;;;;;6173774;23;20088;-43
2023/09/01 09:35:03;;;;;;;6.15;2.15;;;;;;;;;;6176324;23;20021;-43
2023/09/01 09:37:32;;;;;;;8.60;2.22;;;;;;;;;;6141160;23;20016;-48
2023/09/01 09:40:15;;;;;;;6.47;2.00;;;;;;;;;;6179485;23;20267;-44
2023/09/01 09:42:43;;;;;;;7.00;2.23;;;;;;;;;;6140928;23;20480;-43
2023/09/01 09:45:21;;;;;;;6.50;2.13;;;;;;;;;;6174246;23;20367;-49
2023/09/01 09:47:49;;;;;;;6.82;2.08;;;;;;;;;;6186573;23;20449;-45
2023/09/01 09:50:17;;;;;;;5.65;1.90;;;;;;;;;;6164937;23;20008;-44
2023/09/01 09:52:48;;;;;;;5.80;1.98;;;;;;;;;;6154620;23;20023;-43
2023/09/01 09:55:21;;;;;;;6.43;2.10;;;;;;;;;;6171483;23;20012;-44
2023/09/01 09:57:51;;;;;;;6.43;1.80;;;;;;;;;;6177369;23;20808;-44
2023/09/01 10:00:21;;;;;;;9.05;2.05;;;;;;;;;;6173627;23;20012;-45
2023/09/01 10:02:56;;;;;;;7.15;2.25;;;;;;;;;;6172834;23;20032;-44
2023/09/01 10:05:24;;;;;;;5.18;1.67;;;;;;;;;;6169571;23;20017;-45
2023/09/01 10:07:53;;;;;;;5.77;1.93;;;;;;;;;;6176444;23;20341;-43
2023/09/01 10:10:21;;;;;;;7.05;2.00;;;;;;;;;;6162800;23;20017;-43
2023/09/01 10:12:49;;;;;;;6.22;1.60;;;;;;;;;;6186148;23;20065;-43
2023/09/01 10:15:18;;;;;;;7.03;2.05;;;;;;;;;;6112808;23;20079;-43
2023/09/01 10:17:47;;;;;;;5.70;2.00;;;;;;;;;;6182897;23;20017;-44
2023/09/01 10:20:16;;;;;;;5.97;2.00;;;;;;;;;;6178514;23;20013;-45
2023/09/01 10:22:45;;;;;;;5.78;2.10;;;;;;;;;;6159771;23;20019;-44
2023/09/01 10:25:16;;;;;;;6.07;1.67;;;;;;;;;;6120135;23;20499;-44
2023/09/01 10:28:01;;;;;;;6.45;1.73;;;;;;;;;;6178424;23;20016;-44
2023/09/01 10:30:30;;;;;;;5.97;1.90;;;;;;;;;;6163448;23;20454;-43
2023/09/01 10:33:08;;;;;;;5.67;1.83;;;;;;;;;;6160695;23;20036;-46
2023/09/01 10:35:40;;;;;;;6.15;1.50;;;;;;;;;;6160136;23;20440;-44
2023/09/01 10:38:12;;;;;;;6.75;2.22;;;;;;;;;;6189648;23;20031;-43
2023/09/01 10:40:41;;;;;;;7.90;1.80;;;;;;;;;;6181676;23;20025;-45
2023/09/01 10:43:10;;;;;;;5.43;1.65;;;;;;;;;;6182954;23;20013;-44
2023/09/01 10:45:38;;;;;;;4.73;1.93;;;;;;;;;;6177115;23;20512;-45
2023/09/01 10:48:11;;;;;;;4.88;1.42;;;;;;;;;;6186155;23;20070;-46
2023/09/01 10:50:40;;;;;;;7.10;1.83;;;;;;;;;;6182540;23;20515;-47
2023/09/01 10:53:26;;;;;;;12.20;2.45;;;;;;;;;;6175196;23;20013;-45
2023/09/01 10:56:06;;;;;;;6.25;2.00;;;;;;;;;;6182018;23;20056;-46
2023/09/01 10:58:41;;;;;;;7.27;2.43;;;;;;;;;;6174496;23;20044;-45
2023/09/01 11:01:29;;;;;;;7.65;2.00;;;;;;;;;;6179707;23;20021;-46
2023/09/01 11:03:56;;;;;;;7.97;1.95;;;;;;;;;;6164433;23;20031;-43
2023/09/01 11:06:24;;;;;;;6.78;2.03;;;;;;;;;;6145934;23;20419;-45
2023/09/01 11:08:59;;;;;;;5.97;2.35;;;;;;;;;;6180475;23;20051;-44
2023/09/01 11:11:33;;;;;;;5.17;1.80;;;;;;;;;;6189826;23;20016;-45
2023/09/01 11:14:02;;;;;;;5.32;2.00;;;;;;;;;;6188442;23;20052;-43
2023/09/01 11:16:30;;;;;;;5.70;1.52;;;;;;;;;;6180641;23;20017;-43
2023/09/01 11:19:01;;;;;;;6.78;2.05;;;;;;;;;;6178857;23;20051;-43
2023/09/01 11:21:28;;;;;;;6.22;2.00;;;;;;;;;;6182794;23;20024;-44
2023/09/01 11:23:57;;;;;;;6.43;1.80;;;;;;;;;;6185629;23;20081;-44
2023/09/01 11:26:25;;;;;;;5.18;1.85;;;;;;;;;;6181712;23;20017;-42
2023/09/01 11:28:57;;;;;;;7.82;2.45;;;;;;;;;;6175874;23;20567;-47
2023/09/01 11:31:36;;;;;;;6.78;2.17;;;;;;;;;;6186279;23;20023;-43
2023/09/01 11:34:04;;;;;;;6.38;2.03;;;;;;;;;;6177530;23;20729;-43
2023/09/01 11:36:33;;;;;;;6.33;2.30;;;;;;;;;;6188914;23;20020;-42
2023/09/01 11:39:01;;;;;;;7.78;3.20;;;;;;;;;;6179530;23;20023;-42
2023/09/01 11:41:30;;;;;;;7.38;2.25;;;;;;;;;;6180118;23;20021;-42
2023/09/01 11:44:04;;;;;;;6.80;2.05;;;;;;;;;;6181890;23;20083;-43
2023/09/01 11:46:33;;;;;;;7.45;2.50;;;;;;;;;;6181291;23;20017;-45
2023/09/01 11:49:02;;;;;;;6.13;2.47;;;;;;;;;;6189587;23;20017;-43
2023/09/01 11:51:32;;;;;;;6.22;2.40;;;;;;;;;;6178136;23;20017;-45
2023/09/01 11:54:01;;;;;;;7.65;2.97;;;;;;;;;;6189652;23;20503;-43
2023/09/01 11:56:29;;;;;;;5.93;2.28;;;;;;;;;;6175611;23;20040;-45
2023/09/01 11:58:58;;;;;;;6.07;2.35;;;;;;;;;;6190574;23;20021;-44
2023/09/01 12:01:29;;;;;;;8.27;2.60;;;;;;;;;;6180144;23;20372;-43
2023/09/01 12:04:18;;;;;;;5.72;2.30;;;;;;;;;;6187001;23;20036;-44
2023/09/01 12:06:47;;;;;;;7.13;2.40;;;;;;;;;;6190480;23;20025;-44
2023/09/01 12:09:16;;;;;;;6.38;2.67;;;;;;;;;;6178873;23;20024;-44
2023/09/01 12:11:54;;;;;;;7.00;2.50;;;;;;;;;;6182286;23;20020;-43
2023/09/01 12:14:22;;;;;;;6.87;2.90;;;;;;;;;;6188619;23;20249;-44
2023/09/01 12:16:53;;;;;;;7.90;2.75;;;;;;;;;;6179163;23;20367;-44
2023/09/01 12:19:21;;;;;;;6.70;2.42;;;;;;;;;;6179737;23;20016;-42
2023/09/01 12:21:53;;;;;;;7.45;2.60;;;;;;;;;;6180336;23;20013;-42
2023/09/01 12:24:20;;;;;;;6.22;2.50;;;;;;;;;;6186240;23;20036;-44
2023/09/01 12:26:48;;;;;;;5.90;2.17;;;;;;;;;;6183284;23;20026;-44
2023/09/01 12:29:18;;;;;;;6.10;2.20;;;;;;;;;;6185081;23;20411;-43
2023/09/01 12:31:46;;;;;;;7.57;2.30;;;;;;;;;;6173094;23;20021;-44
2023/09/01 12:34:16;;;;;;;5.70;2.30;;;;;;;;;;6184251;23;20313;-42
2023/09/01 12:36:49;;;;;;;5.93;2.00;;;;;;;;;;6179806;23;20017;-43
2023/09/01 12:39:17;;;;;;;5.30;1.90;;;;;;;;;;6186574;23;20028;-44
2023/09/01 12:41:45;;;;;;;6.57;1.65;;;;;;;;;;6180362;23;20444;-42
2023/09/01 12:44:13;;;;;;;5.60;2.03;;;;;;;;;;6187279;23;20016;-43
2023/09/01 12:46:41;;;;;;;5.55;1.75;;;;;;;;;;6175051;23;20063;-44
2023/09/01 12:49:08;;;;;;;5.20;1.88;;;;;;;;;;6165767;23;20023;-42
2023/09/01 12:51:37;;;;;;;6.00;1.63;;;;;;;;;;6180118;23;20023;-44
2023/09/01 12:54:05;;;;;;;5.78;1.90;;;;;;;;;;6179210;23;20396;-44
2023/09/01 12:56:34;;;;;;;6.95;1.75;;;;;;;;;;6178931;23;20529;-42
2023/09/01 12:59:01;;;;;;;5.55;1.83;;;;;;;;;;6183813;23;20024;-42
2023/09/01 13:01:30;;;;;;;5.70;2.08;;;;;;;;;;6179099;23;20395;-45
2023/09/01 13:03:58;;;;;;;6.73;2.00;;;;;;;;;;6179746;23;20017;-44
2023/09/01 13:06:25;;;;;;;5.45;2.13;;;;;;;;;;6185568;23;20016;-42
2023/09/01 13:08:55;;;;;;;5.30;1.75;;;;;;;;;;6132402;23;20609;-43
2023/09/01 13:11:23;;;;;;;5.28;1.95;;;;;;;;;;6189887;23;20013;-44
2023/09/01 13:13:50;;;;;;;4.68;1.70;;;;;;;;;;6180917;23;20294;-42
2023/09/01 13:16:18;;;;;;;5.60;1.80;;;;;;;;;;6181925;23;20024;-42
2023/09/01 13:18:48;;;;;;;4.68;1.75;;;;;;;;;;6181686;23;20062;-43
2023/09/01 13:21:16;;;;;;;8.85;1.90;;;;;;;;;;6172526;23;20013;-42
2023/09/01 13:23:43;;;;;;;6.15;1.65;;;;;;;;;;6181651;23;20055;-42
2023/09/01 13:26:13;;;;;;;5.63;1.63;;;;;;;;;;6141549;23;20088;-42
2023/09/01 13:28:40;;;;;;;5.20;1.50;;;;;;;;;;6153060;23;20636;-42
2023/09/01 13:31:08;;;;;;;5.88;1.70;;;;;;;;;;6190052;23;20013;-42
2023/09/01 13:33:40;;;;;;;5.25;1.98;;;;;;;;;;6179849;23;20096;-43
2023/09/01 13:36:09;;;;;;;5.68;2.20;;;;;;;;;;6174234;23;20020;-43
2023/09/01 13:38:38;;;;;;;6.53;1.98;;;;;;;;;;6185932;23;20048;-43
2023/09/01 13:41:10;;;;;;;4.63;1.63;;;;;;;;;;6185371;23;20039;-42
2023/09/01 13:43:40;;;;;;;6.47;1.88;;;;;;;;;;6175773;23;20100;-42
2023/09/01 13:46:18;;;;;;;6.03;1.83;;;;;;;;;;6176374;23;20016;-43
2023/09/01 13:49:08;;;;;;;8.18;1.35;;;;;;;;;;6173693;23;20444;-44
2023/09/01 13:51:37;;;;;;;4.80;1.67;;;;;;;;;;6172771;23;20012;-44
2023/09/01 13:54:04;;;;;;;6.30;1.67;;;;;;;;;;6185697;23;20028;-43
2023/09/01 13:56:32;;;;;;;5.45;1.88;;;;;;;;;;6186397;23;20017;-44
2023/09/01 13:59:01;;;;;;;6.15;1.95;;;;;;;;;;6185220;23;20071;-46
2023/09/01 14:01:29;;;;;;;4.93;1.50;;;;;;;;;;6182940;23;20163;-44
2023/09/01 14:03:57;;;;;;;5.47;1.80;;;;;;;;;;6189228;23;20409;-44
2023/09/01 14:06:25;;;;;;;4.60;1.50;;;;;;;;;;6184647;23;20105;-45
2023/09/01 14:08:53;;;;;;;5.70;1.65;;;;;;;;;;6190518;23;20497;-46
2023/09/01 14:11:20;;;;;;;4.43;1.50;;;;;;;;;;6183658;23;20017;-45
2023/09/01 14:13:48;;;;;;;4.63;1.63;;;;;;;;;;6189501;23;20031;-44
2023/09/01 14:16:19;;;;;;;5.25;1.80;;;;;;;;;;6185658;23;20012;-42
2023/09/01 14:18:59;;;;;;;5.23;1.87;;;;;;;;;;6172348;23;20055;-43
2023/09/01 14:21:29;;;;;;;4.57;1.60;;;;;;;;;;6167347;23;20017;-42
2023/09/01 14:23:56;;;;;;;5.32;1.70;;;;;;;;;;6142635;23;20024;-49
2023/09/01 14:26:25;;;;;;;4.47;1.60;;;;;;;;;;6191404;23;20475;-45
2023/09/01 14:28:52;;;;;;;5.55;1.58;;;;;;;;;;6176695;23;20013;-44
2023/09/01 14:31:21;;;;;;;5.63;1.50;;;;;;;;;;6188942;23;20024;-42
2023/09/01 14:33:49;;;;;;;5.63;1.63;;;;;;;;;;6178849;23;20020;-45
2023/09/01 14:36:18;;;;;;;4.43;1.65;;;;;;;;;;6187310;23;20020;-44
2023/09/01 14:38:46;;;;;;;4.70;1.65;;;;;;;;;;6178041;23;20028;-43
2023/09/01 14:41:19;;;;;;;4.47;1.70;;;;;;;;;;6194338;23;20051;-44